sensor_id;sensor_type;location;lat;lon;timestamp;P1;durP1;ratioP1;P2;durP2;ratioP2
60704;SDS011;46545;38.014;-7.874;2022-12-20T00:00:19;11.70;;;7.07;;
60704;SDS011;46545;38.014;-7.874;2022-12-20T00:02:21;16.42;;;8.65;;
60704;SDS011;46545;38.014;-7.874;2022-12-20T00:04:21;12.30;;;7.70;;
60704;SDS011;46545;38.014;-7.874;2022-12-20T00:06:22;11.73;;;8.13;;
60704;SDS011;46545;38.014;-7.874;2022-12-20T00:08:24;15.93;;;9.57;;
60704;SDS011;46545;38.014;-7.874;2022-12-20T00:10:24;12.35;;;8.07;;
60704;SDS011;46545;38.014;-7.874;2022-12-20T00:12:25;12.60;;;7.22;;
60704;SDS011;46545;38.014;-7.874;2022-12-20T00:14:26;18.25;;;8.75;;
60704;SDS011;46545;38.014;-7.874;2022-12-20T00:16:27;20.05;;;8.00;;
60704;SDS011;46545;38.014;-7.874;2022-12-20T00:18:28;16.88;;;7.43;;
60704;SDS011;46545;38.014;-7.874;2022-12-20T00:20:29;15.85;;;8.27;;
60704;SDS011;46545;38.014;-7.874;2022-12-20T00:22:29;14.75;;;7.32;;
60704;SDS011;46545;38.014;-7.874;2022-12-20T00:24:30;13.93;;;7.43;;
60704;SDS011;46545;38.014;-7.874;2022-12-20T00:26:32;19.17;;;7.63;;
60704;SDS011;46545;38.014;-7.874;2022-12-20T00:28:34;17.60;;;8.40;;
60704;SDS011;46545;38.014;-7.874;2022-12-20T00:30:35;16.40;;;7.80;;
60704;SDS011;46545;38.014;-7.874;2022-12-20T00:32:35;16.33;;;8.20;;
60704;SDS011;46545;38.014;-7.874;2022-12-20T00:34:36;18.85;;;8.13;;
60704;SDS011;46545;38.014;-7.874;2022-12-20T00:36:38;20.63;;;9.60;;
60704;SDS011;46545;38.014;-7.874;2022-12-20T00:38:43;18.73;;;9.43;;
60704;SDS011;46545;38.014;-7.874;2022-12-20T00:40:43;21.02;;;9.70;;
60704;SDS011;46545;38.014;-7.874;2022-12-20T00:42:44;20.25;;;8.88;;
60704;SDS011;46545;38.014;-7.874;2022-12-20T00:44:44;15.02;;;8.23;;
60704;SDS011;46545;38.014;-7.874;2022-12-20T00:46:45;13.48;;;8.52;;
60704;SDS011;46545;38.014;-7.874;2022-12-20T00:48:46;17.00;;;8.32;;
60704;SDS011;46545;38.014;-7.874;2022-12-20T00:50:46;16.13;;;9.57;;
60704;SDS011;46545;38.014;-7.874;2022-12-20T00:52:47;12.65;;;8.45;;
60704;SDS011;46545;38.014;-7.874;2022-12-20T00:54:47;13.05;;;7.38;;
60704;SDS011;46545;38.014;-7.874;2022-12-20T00:56:48;17.52;;;9.18;;
60704;SDS011;46545;38.014;-7.874;2022-12-20T00:58:48;15.35;;;8.07;;
60704;SDS011;46545;38.014;-7.874;2022-12-20T01:00:49;16.67;;;9.10;;
60704;SDS011;46545;38.014;-7.874;2022-12-20T01:02:49;17.10;;;9.23;;
60704;SDS011;46545;38.014;-7.874;2022-12-20T01:04:50;18.70;;;8.90;;
60704;SDS011;46545;38.014;-7.874;2022-12-20T01:06:50;19.38;;;9.32;;
60704;SDS011;46545;38.014;-7.874;2022-12-20T01:08:52;20.17;;;8.90;;
60704;SDS011;46545;38.014;-7.874;2022-12-20T01:11:00;15.57;;;8.63;;
60704;SDS011;46545;38.014;-7.874;2022-12-20T01:13:00;16.38;;;8.20;;
60704;SDS011;46545;38.014;-7.874;2022-12-20T01:15:01;20.85;;;9.82;;
60704;SDS011;46545;38.014;-7.874;2022-12-20T01:17:02;19.67;;;8.27;;
60704;SDS011;46545;38.014;-7.874;2022-12-20T01:19:02;20.60;;;8.18;;
60704;SDS011;46545;38.014;-7.874;2022-12-20T01:21:04;18.40;;;8.95;;
60704;SDS011;46545;38.014;-7.874;2022-12-20T01:23:05;23.33;;;8.90;;
60704;SDS011;46545;38.014;-7.874;2022-12-20T01:25:05;22.73;;;8.45;;
60704;SDS011;46545;38.014;-7.874;2022-12-20T01:27:06;15.32;;;8.68;;
60704;SDS011;46545;38.014;-7.874;2022-12-20T01:29:06;17.98;;;8.27;;
60704;SDS011;46545;38.014;-7.874;2022-12-20T01:31:08;16.73;;;8.57;;
60704;SDS011;46545;38.014;-7.874;2022-12-20T01:33:08;20.75;;;9.23;;
60704;SDS011;46545;38.014;-7.874;2022-12-20T01:35:09;17.33;;;8.68;;
60704;SDS011;46545;38.014;-7.874;2022-12-20T01:37:09;24.55;;;8.00;;
60704;SDS011;46545;38.014;-7.874;2022-12-20T01:39:11;20.92;;;8.68;;
60704;SDS011;46545;38.014;-7.874;2022-12-20T01:41:16;21.05;;;8.40;;
60704;SDS011;46545;38.014;-7.874;2022-12-20T01:43:18;16.58;;;7.00;;
60704;SDS011;46545;38.014;-7.874;2022-12-20T01:45:28;14.07;;;7.38;;
60704;SDS011;46545;38.014;-7.874;2022-12-20T01:47:30;17.52;;;7.45;;
60704;SDS011;46545;38.014;-7.874;2022-12-20T01:49:33;22.42;;;7.57;;
60704;SDS011;46545;38.014;-7.874;2022-12-20T01:51:35;14.82;;;7.32;;
60704;SDS011;46545;38.014;-7.874;2022-12-20T01:53:38;12.20;;;7.18;;
60704;SDS011;46545;38.014;-7.874;2022-12-20T01:55:38;24.08;;;7.40;;
60704;SDS011;46545;38.014;-7.874;2022-12-20T01:57:49;20.65;;;6.70;;
60704;SDS011;46545;38.014;-7.874;2022-12-20T01:59:51;14.93;;;7.55;;
60704;SDS011;46545;38.014;-7.874;2022-12-20T02:01:55;10.25;;;6.38;;
60704;SDS011;46545;38.014;-7.874;2022-12-20T02:03:57;14.32;;;6.78;;
60704;SDS011;46545;38.014;-7.874;2022-12-20T02:05:57;16.67;;;6.68;;
60704;SDS011;46545;38.014;-7.874;2022-12-20T02:08:12;13.00;;;5.97;;
60704;SDS011;46545;38.014;-7.874;2022-12-20T02:10:14;16.40;;;6.25;;
60704;SDS011;46545;38.014;-7.874;2022-12-20T02:12:22;12.25;;;6.35;;
60704;SDS011;46545;38.014;-7.874;2022-12-20T02:25:40;15.52;;;5.53;;
60704;SDS011;46545;38.014;-7.874;2022-12-20T02:27:57;13.40;;;5.22;;
60704;SDS011;46545;38.014;-7.874;2022-12-20T02:32:18;15.23;;;6.15;;
60704;SDS011;46545;38.014;-7.874;2022-12-20T02:34:20;11.02;;;5.07;;
60704;SDS011;46545;38.014;-7.874;2022-12-20T02:36:24;17.52;;;5.20;;
60704;SDS011;46545;38.014;-7.874;2022-12-20T02:38:30;13.00;;;5.45;;
60704;SDS011;46545;38.014;-7.874;2022-12-20T02:40:38;17.30;;;5.45;;
60704;SDS011;46545;38.014;-7.874;2022-12-20T02:42:41;10.70;;;5.20;;
60704;SDS011;46545;38.014;-7.874;2022-12-20T02:44:43;13.48;;;5.57;;
60704;SDS011;46545;38.014;-7.874;2022-12-20T02:47:04;9.25;;;4.40;;
60704;SDS011;46545;38.014;-7.874;2022-12-20T02:49:13;9.18;;;5.10;;
60704;SDS011;46545;38.014;-7.874;2022-12-20T02:51:14;12.15;;;4.97;;
60704;SDS011;46545;38.014;-7.874;2022-12-20T02:53:15;6.30;;;3.83;;
60704;SDS011;46545;38.014;-7.874;2022-12-20T02:55:18;10.33;;;4.13;;
60704;SDS011;46545;38.014;-7.874;2022-12-20T02:57:28;11.32;;;4.38;;
60704;SDS011;46545;38.014;-7.874;2022-12-20T02:59:42;7.97;;;3.90;;
60704;SDS011;46545;38.014;-7.874;2022-12-20T03:01:45;12.23;;;5.00;;
60704;SDS011;46545;38.014;-7.874;2022-12-20T03:03:47;7.70;;;4.03;;
60704;SDS011;46545;38.014;-7.874;2022-12-20T03:05:48;16.00;;;5.47;;
60704;SDS011;46545;38.014;-7.874;2022-12-20T03:07:52;12.75;;;4.68;;
60704;SDS011;46545;38.014;-7.874;2022-12-20T03:09:55;9.40;;;4.88;;
60704;SDS011;46545;38.014;-7.874;2022-12-20T03:11:56;8.73;;;4.35;;
60704;SDS011;46545;38.014;-7.874;2022-12-20T03:13:56;10.13;;;4.65;;
60704;SDS011;46545;38.014;-7.874;2022-12-20T03:15:57;14.18;;;5.47;;
60704;SDS011;46545;38.014;-7.874;2022-12-20T03:17:58;9.00;;;5.90;;
60704;SDS011;46545;38.014;-7.874;2022-12-20T03:19:58;15.93;;;5.85;;
60704;SDS011;46545;38.014;-7.874;2022-12-20T03:21:59;12.60;;;5.22;;
60704;SDS011;46545;38.014;-7.874;2022-12-20T03:24:00;15.07;;;6.95;;
60704;SDS011;46545;38.014;-7.874;2022-12-20T03:26:00;15.70;;;6.75;;
60704;SDS011;46545;38.014;-7.874;2022-12-20T03:28:09;19.10;;;6.13;;
60704;SDS011;46545;38.014;-7.874;2022-12-20T03:30:10;13.18;;;7.30;;
60704;SDS011;46545;38.014;-7.874;2022-12-20T03:32:11;18.90;;;7.05;;
60704;SDS011;46545;38.014;-7.874;2022-12-20T03:34:14;16.45;;;7.25;;
60704;SDS011;46545;38.014;-7.874;2022-12-20T03:36:15;23.67;;;7.13;;
60704;SDS011;46545;38.014;-7.874;2022-12-20T03:38:15;16.63;;;6.75;;
60704;SDS011;46545;38.014;-7.874;2022-12-20T03:40:16;18.90;;;9.05;;
60704;SDS011;46545;38.014;-7.874;2022-12-20T03:42:18;25.33;;;8.23;;
60704;SDS011;46545;38.014;-7.874;2022-12-20T03:44:18;13.85;;;7.80;;
60704;SDS011;46545;38.014;-7.874;2022-12-20T03:46:19;20.52;;;7.32;;
60704;SDS011;46545;38.014;-7.874;2022-12-20T03:48:19;20.08;;;8.35;;
60704;SDS011;46545;38.014;-7.874;2022-12-20T03:50:21;17.30;;;6.65;;
60704;SDS011;46545;38.014;-7.874;2022-12-20T03:52:22;15.30;;;6.68;;
60704;SDS011;46545;38.014;-7.874;2022-12-20T03:54:23;14.98;;;6.30;;
60704;SDS011;46545;38.014;-7.874;2022-12-20T03:56:43;20.25;;;8.25;;
60704;SDS011;46545;38.014;-7.874;2022-12-20T03:58:44;20.33;;;7.35;;
60704;SDS011;46545;38.014;-7.874;2022-12-20T04:00:45;18.05;;;7.40;;
60704;SDS011;46545;38.014;-7.874;2022-12-20T04:03:09;11.50;;;6.35;;
60704;SDS011;46545;38.014;-7.874;2022-12-20T04:05:10;16.73;;;7.28;;
60704;SDS011;46545;38.014;-7.874;2022-12-20T04:07:11;17.45;;;7.38;;
60704;SDS011;46545;38.014;-7.874;2022-12-20T04:11:21;19.30;;;6.97;;
60704;SDS011;46545;38.014;-7.874;2022-12-20T04:13:29;15.70;;;6.50;;
60704;SDS011;46545;38.014;-7.874;2022-12-20T04:15:30;14.95;;;5.82;;
60704;SDS011;46545;38.014;-7.874;2022-12-20T04:17:31;20.15;;;6.68;;
60704;SDS011;46545;38.014;-7.874;2022-12-20T04:19:32;8.98;;;5.60;;
60704;SDS011;46545;38.014;-7.874;2022-12-20T04:21:34;12.13;;;6.18;;
60704;SDS011;46545;38.014;-7.874;2022-12-20T04:23:37;12.40;;;5.75;;
60704;SDS011;46545;38.014;-7.874;2022-12-20T04:25:38;17.40;;;6.40;;
60704;SDS011;46545;38.014;-7.874;2022-12-20T04:27:41;14.50;;;5.85;;
60704;SDS011;46545;38.014;-7.874;2022-12-20T04:29:41;12.02;;;5.50;;
60704;SDS011;46545;38.014;-7.874;2022-12-20T04:31:45;15.18;;;6.78;;
60704;SDS011;46545;38.014;-7.874;2022-12-20T04:33:46;15.95;;;6.45;;
60704;SDS011;46545;38.014;-7.874;2022-12-20T04:35:48;16.88;;;6.47;;
60704;SDS011;46545;38.014;-7.874;2022-12-20T04:37:48;12.85;;;6.75;;
60704;SDS011;46545;38.014;-7.874;2022-12-20T04:39:49;22.17;;;7.72;;
60704;SDS011;46545;38.014;-7.874;2022-12-20T04:42:17;20.67;;;6.47;;
60704;SDS011;46545;38.014;-7.874;2022-12-20T04:44:17;14.98;;;5.28;;
60704;SDS011;46545;38.014;-7.874;2022-12-20T04:46:18;13.65;;;5.68;;
60704;SDS011;46545;38.014;-7.874;2022-12-20T04:48:19;17.67;;;6.40;;
60704;SDS011;46545;38.014;-7.874;2022-12-20T04:50:20;20.05;;;6.95;;
60704;SDS011;46545;38.014;-7.874;2022-12-20T04:52:20;13.52;;;6.13;;
60704;SDS011;46545;38.014;-7.874;2022-12-20T04:54:39;19.90;;;6.00;;
60704;SDS011;46545;38.014;-7.874;2022-12-20T04:56:48;15.98;;;6.15;;
60704;SDS011;46545;38.014;-7.874;2022-12-20T04:58:53;13.25;;;5.93;;
60704;SDS011;46545;38.014;-7.874;2022-12-20T05:00:54;15.82;;;6.38;;
60704;SDS011;46545;38.014;-7.874;2022-12-20T05:02:58;13.32;;;6.05;;
60704;SDS011;46545;38.014;-7.874;2022-12-20T05:04:59;19.02;;;6.18;;
60704;SDS011;46545;38.014;-7.874;2022-12-20T05:06:59;17.60;;;5.88;;
60704;SDS011;46545;38.014;-7.874;2022-12-20T05:09:00;10.18;;;5.10;;
60704;SDS011;46545;38.014;-7.874;2022-12-20T05:11:01;9.52;;;5.32;;
60704;SDS011;46545;38.014;-7.874;2022-12-20T05:13:02;14.20;;;5.40;;
60704;SDS011;46545;38.014;-7.874;2022-12-20T05:15:11;9.27;;;5.47;;
60704;SDS011;46545;38.014;-7.874;2022-12-20T05:17:11;13.60;;;5.10;;
60704;SDS011;46545;38.014;-7.874;2022-12-20T05:19:12;13.43;;;6.22;;
60704;SDS011;46545;38.014;-7.874;2022-12-20T05:21:15;10.73;;;4.60;;
60704;SDS011;46545;38.014;-7.874;2022-12-20T05:23:34;13.63;;;5.70;;
60704;SDS011;46545;38.014;-7.874;2022-12-20T05:25:57;15.32;;;5.05;;
60704;SDS011;46545;38.014;-7.874;2022-12-20T05:28:16;11.57;;;4.63;;
60704;SDS011;46545;38.014;-7.874;2022-12-20T05:30:17;17.30;;;5.18;;
60704;SDS011;46545;38.014;-7.874;2022-12-20T05:32:18;17.48;;;5.22;;
60704;SDS011;46545;38.014;-7.874;2022-12-20T05:34:19;14.77;;;4.85;;
60704;SDS011;46545;38.014;-7.874;2022-12-20T05:36:24;8.90;;;5.00;;
60704;SDS011;46545;38.014;-7.874;2022-12-20T05:38:25;9.45;;;3.58;;
60704;SDS011;46545;38.014;-7.874;2022-12-20T05:40:26;15.95;;;4.30;;
60704;SDS011;46545;38.014;-7.874;2022-12-20T05:42:26;15.60;;;4.70;;
60704;SDS011;46545;38.014;-7.874;2022-12-20T05:44:27;13.43;;;4.53;;
60704;SDS011;46545;38.014;-7.874;2022-12-20T05:46:30;15.02;;;5.90;;
60704;SDS011;46545;38.014;-7.874;2022-12-20T05:48:35;10.07;;;4.60;;
60704;SDS011;46545;38.014;-7.874;2022-12-20T05:50:36;11.35;;;5.30;;
60704;SDS011;46545;38.014;-7.874;2022-12-20T05:52:56;13.55;;;3.60;;
60704;SDS011;46545;38.014;-7.874;2022-12-20T05:54:57;12.15;;;4.53;;
60704;SDS011;46545;38.014;-7.874;2022-12-20T05:56:59;15.82;;;4.65;;
60704;SDS011;46545;38.014;-7.874;2022-12-20T05:59:07;7.47;;;4.63;;
60704;SDS011;46545;38.014;-7.874;2022-12-20T06:01:09;15.20;;;3.72;;
60704;SDS011;46545;38.014;-7.874;2022-12-20T06:03:11;20.08;;;4.35;;
60704;SDS011;46545;38.014;-7.874;2022-12-20T06:05:14;23.27;;;4.68;;
60704;SDS011;46545;38.014;-7.874;2022-12-20T06:07:15;10.48;;;3.78;;
60704;SDS011;46545;38.014;-7.874;2022-12-20T06:09:17;9.38;;;4.30;;
60704;SDS011;46545;38.014;-7.874;2022-12-20T06:11:24;14.52;;;4.22;;
60704;SDS011;46545;38.014;-7.874;2022-12-20T06:13:33;15.07;;;4.00;;
60704;SDS011;46545;38.014;-7.874;2022-12-20T06:15:34;12.10;;;3.38;;
60704;SDS011;46545;38.014;-7.874;2022-12-20T06:17:35;15.07;;;4.70;;
60704;SDS011;46545;38.014;-7.874;2022-12-20T06:19:36;11.63;;;3.35;;
60704;SDS011;46545;38.014;-7.874;2022-12-20T06:21:36;8.75;;;3.33;;
60704;SDS011;46545;38.014;-7.874;2022-12-20T06:23:37;14.25;;;4.00;;
60704;SDS011;46545;38.014;-7.874;2022-12-20T06:25:44;16.23;;;4.20;;
60704;SDS011;46545;38.014;-7.874;2022-12-20T06:27:45;11.52;;;3.92;;
60704;SDS011;46545;38.014;-7.874;2022-12-20T06:29:48;10.80;;;3.53;;
60704;SDS011;46545;38.014;-7.874;2022-12-20T06:31:55;16.33;;;4.38;;
60704;SDS011;46545;38.014;-7.874;2022-12-20T06:33:56;9.90;;;4.80;;
60704;SDS011;46545;38.014;-7.874;2022-12-20T06:36:00;17.60;;;3.70;;
60704;SDS011;46545;38.014;-7.874;2022-12-20T06:38:00;12.45;;;4.60;;
60704;SDS011;46545;38.014;-7.874;2022-12-20T06:42:04;13.23;;;4.60;;
60704;SDS011;46545;38.014;-7.874;2022-12-20T06:44:08;20.63;;;4.55;;
60704;SDS011;46545;38.014;-7.874;2022-12-20T06:46:08;14.93;;;4.38;;
60704;SDS011;46545;38.014;-7.874;2022-12-20T06:48:10;16.02;;;4.55;;
60704;SDS011;46545;38.014;-7.874;2022-12-20T06:50:11;16.55;;;4.40;;
60704;SDS011;46545;38.014;-7.874;2022-12-20T06:52:12;17.35;;;4.72;;
60704;SDS011;46545;38.014;-7.874;2022-12-20T06:54:19;12.75;;;4.43;;
60704;SDS011;46545;38.014;-7.874;2022-12-20T06:56:20;12.85;;;4.38;;
60704;SDS011;46545;38.014;-7.874;2022-12-20T06:58:21;14.18;;;4.13;;
60704;SDS011;46545;38.014;-7.874;2022-12-20T07:00:22;15.70;;;4.32;;
60704;SDS011;46545;38.014;-7.874;2022-12-20T07:02:23;13.85;;;4.00;;
60704;SDS011;46545;38.014;-7.874;2022-12-20T07:04:23;18.02;;;4.13;;
60704;SDS011;46545;38.014;-7.874;2022-12-20T07:06:24;13.50;;;4.82;;
60704;SDS011;46545;38.014;-7.874;2022-12-20T07:08:26;16.13;;;4.72;;
60704;SDS011;46545;38.014;-7.874;2022-12-20T07:10:26;15.90;;;4.53;;
60704;SDS011;46545;38.014;-7.874;2022-12-20T07:12:27;11.00;;;4.05;;
60704;SDS011;46545;38.014;-7.874;2022-12-20T07:14:27;18.35;;;4.72;;
60704;SDS011;46545;38.014;-7.874;2022-12-20T07:16:28;22.33;;;4.07;;
60704;SDS011;46545;38.014;-7.874;2022-12-20T07:18:28;16.65;;;4.30;;
60704;SDS011;46545;38.014;-7.874;2022-12-20T07:20:29;7.97;;;4.13;;
60704;SDS011;46545;38.014;-7.874;2022-12-20T07:22:29;13.18;;;4.05;;
60704;SDS011;46545;38.014;-7.874;2022-12-20T07:24:30;11.90;;;3.92;;
60704;SDS011;46545;38.014;-7.874;2022-12-20T07:26:31;15.55;;;5.05;;
60704;SDS011;46545;38.014;-7.874;2022-12-20T07:28:31;24.02;;;4.45;;
60704;SDS011;46545;38.014;-7.874;2022-12-20T07:30:32;12.02;;;4.07;;
60704;SDS011;46545;38.014;-7.874;2022-12-20T07:32:32;12.68;;;4.32;;
60704;SDS011;46545;38.014;-7.874;2022-12-20T07:34:33;17.05;;;5.88;;
60704;SDS011;46545;38.014;-7.874;2022-12-20T07:36:35;9.80;;;4.13;;
60704;SDS011;46545;38.014;-7.874;2022-12-20T07:38:36;12.32;;;4.18;;
60704;SDS011;46545;38.014;-7.874;2022-12-20T07:40:38;16.88;;;4.05;;
60704;SDS011;46545;38.014;-7.874;2022-12-20T07:42:39;8.57;;;3.90;;
60704;SDS011;46545;38.014;-7.874;2022-12-20T07:44:40;11.15;;;3.22;;
60704;SDS011;46545;38.014;-7.874;2022-12-20T07:46:40;9.23;;;3.50;;
60704;SDS011;46545;38.014;-7.874;2022-12-20T07:48:41;7.78;;;3.70;;
60704;SDS011;46545;38.014;-7.874;2022-12-20T07:50:41;11.38;;;4.03;;
60704;SDS011;46545;38.014;-7.874;2022-12-20T07:52:42;10.55;;;4.03;;
60704;SDS011;46545;38.014;-7.874;2022-12-20T07:54:44;10.02;;;3.72;;
60704;SDS011;46545;38.014;-7.874;2022-12-20T07:56:46;10.20;;;3.95;;
60704;SDS011;46545;38.014;-7.874;2022-12-20T07:58:47;4.40;;;2.55;;
60704;SDS011;46545;38.014;-7.874;2022-12-20T08:00:49;10.77;;;4.15;;
60704;SDS011;46545;38.014;-7.874;2022-12-20T08:02:55;7.53;;;3.22;;
60704;SDS011;46545;38.014;-7.874;2022-12-20T08:04:57;3.45;;;2.70;;
60704;SDS011;46545;38.014;-7.874;2022-12-20T08:06:58;8.70;;;2.63;;
60704;SDS011;46545;38.014;-7.874;2022-12-20T08:09:01;7.95;;;3.47;;
60704;SDS011;46545;38.014;-7.874;2022-12-20T08:11:02;4.78;;;2.80;;
60704;SDS011;46545;38.014;-7.874;2022-12-20T08:13:03;7.82;;;2.97;;
60704;SDS011;46545;38.014;-7.874;2022-12-20T08:15:04;4.18;;;2.80;;
60704;SDS011;46545;38.014;-7.874;2022-12-20T08:17:05;6.68;;;2.83;;
60704;SDS011;46545;38.014;-7.874;2022-12-20T08:19:05;5.30;;;2.15;;
60704;SDS011;46545;38.014;-7.874;2022-12-20T08:21:06;7.20;;;2.13;;
60704;SDS011;46545;38.014;-7.874;2022-12-20T08:23:07;5.47;;;1.45;;
60704;SDS011;46545;38.014;-7.874;2022-12-20T08:25:07;3.90;;;1.65;;
60704;SDS011;46545;38.014;-7.874;2022-12-20T08:27:08;5.20;;;1.55;;
60704;SDS011;46545;38.014;-7.874;2022-12-20T08:29:08;4.35;;;1.30;;
60704;SDS011;46545;38.014;-7.874;2022-12-20T08:31:10;3.95;;;1.90;;
60704;SDS011;46545;38.014;-7.874;2022-12-20T08:33:11;5.82;;;1.98;;
60704;SDS011;46545;38.014;-7.874;2022-12-20T08:35:12;3.90;;;1.35;;
60704;SDS011;46545;38.014;-7.874;2022-12-20T08:37:15;3.65;;;1.48;;
60704;SDS011;46545;38.014;-7.874;2022-12-20T08:39:15;3.00;;;1.35;;
60704;SDS011;46545;38.014;-7.874;2022-12-20T08:41:16;3.95;;;1.23;;
60704;SDS011;46545;38.014;-7.874;2022-12-20T08:43:16;2.42;;;1.10;;
60704;SDS011;46545;38.014;-7.874;2022-12-20T08:45:17;1.20;;;0.90;;
60704;SDS011;46545;38.014;-7.874;2022-12-20T08:47:18;2.13;;;0.80;;
60704;SDS011;46545;38.014;-7.874;2022-12-20T08:49:19;1.52;;;0.70;;
60704;SDS011;46545;38.014;-7.874;2022-12-20T08:51:19;0.82;;;0.60;;
60704;SDS011;46545;38.014;-7.874;2022-12-20T08:53:20;1.58;;;0.80;;
60704;SDS011;46545;38.014;-7.874;2022-12-20T08:55:20;2.60;;;0.98;;
60704;SDS011;46545;38.014;-7.874;2022-12-20T08:57:21;3.42;;;1.13;;
60704;SDS011;46545;38.014;-7.874;2022-12-20T08:59:21;2.03;;;1.42;;
60704;SDS011;46545;38.014;-7.874;2022-12-20T09:01:22;4.45;;;1.63;;
60704;SDS011;46545;38.014;-7.874;2022-12-20T09:03:22;4.72;;;1.63;;
60704;SDS011;46545;38.014;-7.874;2022-12-20T09:05:23;3.47;;;1.70;;
60704;SDS011;46545;38.014;-7.874;2022-12-20T09:07:23;5.95;;;1.92;;
60704;SDS011;46545;38.014;-7.874;2022-12-20T09:09:24;3.03;;;1.70;;
60704;SDS011;46545;38.014;-7.874;2022-12-20T09:11:24;4.00;;;1.40;;
60704;SDS011;46545;38.014;-7.874;2022-12-20T09:13:25;7.45;;;1.50;;
60704;SDS011;46545;38.014;-7.874;2022-12-20T09:15:26;8.35;;;2.30;;
60704;SDS011;46545;38.014;-7.874;2022-12-20T09:17:27;5.82;;;1.55;;
60704;SDS011;46545;38.014;-7.874;2022-12-20T09:19:27;5.57;;;1.60;;
60704;SDS011;46545;38.014;-7.874;2022-12-20T09:21:28;7.13;;;1.98;;
60704;SDS011;46545;38.014;-7.874;2022-12-20T09:23:29;3.55;;;1.60;;
60704;SDS011;46545;38.014;-7.874;2022-12-20T09:25:29;4.28;;;1.70;;
60704;SDS011;46545;38.014;-7.874;2022-12-20T09:27:30;11.75;;;2.05;;
60704;SDS011;46545;38.014;-7.874;2022-12-20T09:29:30;5.90;;;1.33;;
60704;SDS011;46545;38.014;-7.874;2022-12-20T09:31:31;5.30;;;1.73;;
60704;SDS011;46545;38.014;-7.874;2022-12-20T09:33:31;5.25;;;1.98;;
60704;SDS011;46545;38.014;-7.874;2022-12-20T09:35:32;2.92;;;2.10;;
60704;SDS011;46545;38.014;-7.874;2022-12-20T09:37:33;7.40;;;2.10;;
60704;SDS011;46545;38.014;-7.874;2022-12-20T09:39:34;3.35;;;1.83;;
60704;SDS011;46545;38.014;-7.874;2022-12-20T09:41:38;10.38;;;3.97;;
60704;SDS011;46545;38.014;-7.874;2022-12-20T09:43:39;7.38;;;2.25;;
60704;SDS011;46545;38.014;-7.874;2022-12-20T09:45:40;5.25;;;2.25;;
60704;SDS011;46545;38.014;-7.874;2022-12-20T09:47:41;6.43;;;2.17;;
60704;SDS011;46545;38.014;-7.874;2022-12-20T09:49:46;2.13;;;1.92;;
60704;SDS011;46545;38.014;-7.874;2022-12-20T09:52:13;8.05;;;2.03;;
60704;SDS011;46545;38.014;-7.874;2022-12-20T09:54:43;3.70;;;1.85;;
60704;SDS011;46545;38.014;-7.874;2022-12-20T09:56:35;2.88;;;1.60;;
60704;SDS011;46545;38.014;-7.874;2022-12-20T10:00:49;5.45;;;1.70;;
60704;SDS011;46545;38.014;-7.874;2022-12-20T10:02:50;4.93;;;2.08;;
60704;SDS011;46545;38.014;-7.874;2022-12-20T10:04:51;3.75;;;2.20;;
60704;SDS011;46545;38.014;-7.874;2022-12-20T10:07:09;6.88;;;3.13;;
60704;SDS011;46545;38.014;-7.874;2022-12-20T10:10:01;3.72;;;2.15;;
60704;SDS011;46545;38.014;-7.874;2022-12-20T10:16:06;3.65;;;2.20;;
60704;SDS011;46545;38.014;-7.874;2022-12-20T10:20:19;5.63;;;2.30;;
60704;SDS011;46545;38.014;-7.874;2022-12-20T10:24:25;4.63;;;1.55;;
60704;SDS011;46545;38.014;-7.874;2022-12-20T10:26:27;4.85;;;1.35;;
60704;SDS011;46545;38.014;-7.874;2022-12-20T10:28:29;2.70;;;0.93;;
60704;SDS011;46545;38.014;-7.874;2022-12-20T10:30:30;0.52;;;0.50;;
60704;SDS011;46545;38.014;-7.874;2022-12-20T10:32:31;1.20;;;0.70;;
60704;SDS011;46545;38.014;-7.874;2022-12-20T10:34:32;1.08;;;0.80;;
60704;SDS011;46545;38.014;-7.874;2022-12-20T10:36:33;1.00;;;0.80;;
60704;SDS011;46545;38.014;-7.874;2022-12-20T10:38:44;2.30;;;0.75;;
60704;SDS011;46545;38.014;-7.874;2022-12-20T10:42:46;0.73;;;0.57;;
60704;SDS011;46545;38.014;-7.874;2022-12-20T10:44:46;0.75;;;0.57;;
60704;SDS011;46545;38.014;-7.874;2022-12-20T10:46:48;1.42;;;0.77;;
60704;SDS011;46545;38.014;-7.874;2022-12-20T10:48:50;1.42;;;0.95;;
60704;SDS011;46545;38.014;-7.874;2022-12-20T10:50:54;2.15;;;0.93;;
60704;SDS011;46545;38.014;-7.874;2022-12-20T10:57:30;1.88;;;1.52;;
60704;SDS011;46545;38.014;-7.874;2022-12-20T10:59:34;3.67;;;1.63;;
60704;SDS011;46545;38.014;-7.874;2022-12-20T11:01:42;5.45;;;1.17;;
60704;SDS011;46545;38.014;-7.874;2022-12-20T11:03:50;1.70;;;1.60;;
60704;SDS011;46545;38.014;-7.874;2022-12-20T11:09:59;3.65;;;1.77;;
60704;SDS011;46545;38.014;-7.874;2022-12-20T11:14:11;6.80;;;1.98;;
60704;SDS011;46545;38.014;-7.874;2022-12-20T11:18:25;6.88;;;3.00;;
60704;SDS011;46545;38.014;-7.874;2022-12-20T11:25:00;5.13;;;2.67;;
60704;SDS011;46545;38.014;-7.874;2022-12-20T11:27:19;5.22;;;1.80;;
60704;SDS011;46545;38.014;-7.874;2022-12-20T11:40:14;2.17;;;0.85;;
60704;SDS011;46545;38.014;-7.874;2022-12-20T11:46:36;5.05;;;1.08;;
60704;SDS011;46545;38.014;-7.874;2022-12-20T11:55:32;9.93;;;2.03;;
60704;SDS011;46545;38.014;-7.874;2022-12-20T11:57:35;4.13;;;1.48;;
60704;SDS011;46545;38.014;-7.874;2022-12-20T11:59:44;3.83;;;1.60;;
60704;SDS011;46545;38.014;-7.874;2022-12-20T12:01:47;10.98;;;2.35;;
60704;SDS011;46545;38.014;-7.874;2022-12-20T12:04:11;12.82;;;2.25;;
60704;SDS011;46545;38.014;-7.874;2022-12-20T12:06:22;9.23;;;1.55;;
60704;SDS011;46545;38.014;-7.874;2022-12-20T12:08:28;8.02;;;1.63;;
60704;SDS011;46545;38.014;-7.874;2022-12-20T12:10:34;10.48;;;2.00;;
60704;SDS011;46545;38.014;-7.874;2022-12-20T12:12:46;7.18;;;1.67;;
60704;SDS011;46545;38.014;-7.874;2022-12-20T12:16:48;12.02;;;2.72;;
60704;SDS011;46545;38.014;-7.874;2022-12-20T12:18:50;7.72;;;1.50;;
60704;SDS011;46545;38.014;-7.874;2022-12-20T12:23:04;7.25;;;1.95;;
60704;SDS011;46545;38.014;-7.874;2022-12-20T12:25:08;7.07;;;1.50;;
60704;SDS011;46545;38.014;-7.874;2022-12-20T12:27:19;10.27;;;1.98;;
60704;SDS011;46545;38.014;-7.874;2022-12-20T12:29:20;5.15;;;1.38;;
60704;SDS011;46545;38.014;-7.874;2022-12-20T12:31:24;12.65;;;1.50;;
60704;SDS011;46545;38.014;-7.874;2022-12-20T12:33:36;8.65;;;1.20;;
60704;SDS011;46545;38.014;-7.874;2022-12-20T12:42:16;6.70;;;1.40;;
60704;SDS011;46545;38.014;-7.874;2022-12-20T12:46:28;15.45;;;3.33;;
60704;SDS011;46545;38.014;-7.874;2022-12-20T12:49:15;8.20;;;1.67;;
60704;SDS011;46545;38.014;-7.874;2022-12-20T12:50:51;18.33;;;1.70;;
60704;SDS011;46545;38.014;-7.874;2022-12-20T12:52:53;8.98;;;1.88;;
60704;SDS011;46545;38.014;-7.874;2022-12-20T12:54:55;8.50;;;1.45;;
60704;SDS011;46545;38.014;-7.874;2022-12-20T12:56:59;9.50;;;2.35;;
60704;SDS011;46545;38.014;-7.874;2022-12-20T13:01:08;6.47;;;1.00;;
60704;SDS011;46545;38.014;-7.874;2022-12-20T13:03:13;4.00;;;1.40;;
60704;SDS011;46545;38.014;-7.874;2022-12-20T13:11:39;5.82;;;1.83;;
60704;SDS011;46545;38.014;-7.874;2022-12-20T13:13:40;10.75;;;1.55;;
60704;SDS011;46545;38.014;-7.874;2022-12-20T13:17:57;7.18;;;1.38;;
60704;SDS011;46545;38.014;-7.874;2022-12-20T13:19:58;5.13;;;1.63;;
60704;SDS011;46545;38.014;-7.874;2022-12-20T13:26:48;13.25;;;1.55;;
60704;SDS011;46545;38.014;-7.874;2022-12-20T13:28:49;10.40;;;1.90;;
60704;SDS011;46545;38.014;-7.874;2022-12-20T13:31:28;8.48;;;1.30;;
60704;SDS011;46545;38.014;-7.874;2022-12-20T13:37:50;11.20;;;1.88;;
60704;SDS011;46545;38.014;-7.874;2022-12-20T13:39:49;10.57;;;2.38;;
60704;SDS011;46545;38.014;-7.874;2022-12-20T13:41:50;8.80;;;1.08;;
60704;SDS011;46545;38.014;-7.874;2022-12-20T13:43:51;4.88;;;1.88;;
60704;SDS011;46545;38.014;-7.874;2022-12-20T13:48:02;13.65;;;1.85;;